WetterOnline ( https://www.wetteronline.de )

Wetter aktuell Messina

Aktuelles Wetter: Messina (51m)

6-stündlich | Neueste Meldungen
Ortszeit Temperatur Wetter
Mo, 09.12. 7:00 15.0° C wolkig
Mo, 09.12. 1:00 14.0° C leicht bewölkt
So, 08.12. 19:00 15.2° C leicht bewölkt
So, 08.12. 13:00 19.8° C leicht bewölkt
So, 08.12. 7:00 14.0° C fast wolkenlos
So, 08.12. 1:00 14.2° C fast wolkenlos
Sa, 07.12. 19:00 14.6° C wolkenlos
Sa, 07.12. 13:00 19.2° C fast wolkenlos
Ortszeit Temperatur Wetter
Mo, 09.12. 12:00 16.8° C wolkig
Mo, 09.12. 11:55 17° C leicht bewölkt
Mo, 09.12. 11:00 16.2° C wolkig
Mo, 09.12. 10:55 16° C leicht bewölkt
Mo, 09.12. 10:00 15.6° C wolkig
Mo, 09.12. 9:55 16° C leicht bewölkt
Mo, 09.12. 9:00 15.4° C bewölkt
Mo, 09.12. 8:55 15° C leicht bewölkt
Mo, 09.12. 8:00 14.8° C wolkig
Ortszeit Relative Feuchte Sichtweite
Mo, 09.12. 7:00 84% 18 km
Mo, 09.12. 1:00 92% 18 km
So, 08.12. 19:00 86% 20 km
So, 08.12. 13:00 60% 20 km
So, 08.12. 7:00 89% 16 km
So, 08.12. 1:00 84% 12 km
Sa, 07.12. 19:00 75% 20 km
Sa, 07.12. 13:00 41% 25 km
Ortszeit Relative Feuchte Sichtweite
Mo, 09.12. 12:00 58% 20 km
Mo, 09.12. 11:55 59% >10 km
Mo, 09.12. 11:00 61% 20 km
Mo, 09.12. 10:55 63% >10 km
Mo, 09.12. 10:00 77% 10 km
Mo, 09.12. 9:55 77% >10 km
Mo, 09.12. 9:00 83% 20 km
Mo, 09.12. 8:55 88% >10 km
Mo, 09.12. 8:00 90% 20 km
Ortszeit Niederschlagsmenge Niederschlagsart
Mo, 09.12. 7:00 0.0 l/m2 in 12 Std. -
Mo, 09.12. 1:00 0.0 l/m2 in 6 Std. -
So, 08.12. 19:00 0.0 l/m2 in 12 Std. -
So, 08.12. 13:00 0.0 l/m2 in 6 Std. -
So, 08.12. 7:00 0.0 l/m2 in 12 Std. -
So, 08.12. 1:00 0.0 l/m2 in 6 Std. -
Sa, 07.12. 19:00 0.0 l/m2 in 12 Std. -
Sa, 07.12. 13:00 0.0 l/m2 in 6 Std. -
Ortszeit Niederschlagsmenge Niederschlagsart
Mo, 09.12. 12:00 keine Meldung -
Mo, 09.12. 11:55 keine Meldung -
Mo, 09.12. 11:00 keine Meldung -
Mo, 09.12. 10:55 keine Meldung -
Mo, 09.12. 10:00 keine Meldung -
Mo, 09.12. 9:55 keine Meldung -
Mo, 09.12. 9:00 keine Meldung -
Mo, 09.12. 8:55 keine Meldung -
Mo, 09.12. 8:00 keine Meldung -
Ortszeit Stärke Spitze Richtung
km/h Bft. km/h Grad Sektor
Mo, 09.12. 7:00 0 0 - - -
Mo, 09.12. 1:00 2 1 - 220° SW
So, 08.12. 19:00 0 0 - - -
So, 08.12. 13:00 6 1 - 330° NW
So, 08.12. 7:00 4 1 - 340° N
So, 08.12. 1:00 4 1 - 350° N
Sa, 07.12. 19:00 6 1 - 340° N
Sa, 07.12. 13:00 4 1 - 330° NW
Ortszeit Stärke Spitze Richtung
km/h Bft. km/h Grad Sektor
Mo, 09.12. 12:00 0 0 - - -
Mo, 09.12. 11:55 0 0 - - -
Mo, 09.12. 11:00 4 1 - 120° SO
Mo, 09.12. 10:55 4 1 - 120° SO
Mo, 09.12. 10:00 4 1 - 310° NW
Mo, 09.12. 9:55 4 1 - 310° NW
Mo, 09.12. 9:00 4 1 - 320° NW
Mo, 09.12. 8:55 4 1 - 320° NW
Mo, 09.12. 8:00 4 1 - 320° NW
Ortszeit Untergrenze Bedeckung Gattung
total tief tief mittel hoch
Mo, 09.12. 7:00 1200 m 8/8 1/8 Sc Ac Cs
Mo, 09.12. 1:00 2400 m 5/8 5/8 - Ac -
So, 08.12. 19:00 2400 m 2/8 2/8 - Ac -
So, 08.12. 13:00 900 m 3/8 1/8 Cu - Ci
So, 08.12. 7:00 2400 m 1/8 1/8 - As -
So, 08.12. 1:00 2400 m 1/8 1/8 - Ac -
Sa, 07.12. 19:00 - 0/8 0/8 - - -
Sa, 07.12. 13:00 900 m 2/8 1/8 Sc - Ci
Ortszeit Bedeckungsgrad in Achtel und Wolkenuntergrenze
Mo, 09.12. 12:00 2(1200m) 4(2400m)
Mo, 09.12. 11:55 1-2(1200m)
Mo, 09.12. 11:00 2(1200m) 3(2400m)
Mo, 09.12. 10:55 1-2(1200m)
Mo, 09.12. 10:00 2(1200m) 3(2400m) 5(3000m)
Mo, 09.12. 9:55 1-2(1200m)
Mo, 09.12. 9:00 2(1200m) 4(2400m) 8(3000m)
Mo, 09.12. 8:55 1-2(1200m)
Mo, 09.12. 8:00 2(1200m) 4(2400m)
Ortszeit Luftdruck NN (hPa) Tendenz (hPa in 3 Std.)
Mo, 09.12. 7:00 1016 - 0,9
Mo, 09.12. 1:00 1018 - 1,5
So, 08.12. 19:00 1020 - 0,3
So, 08.12. 13:00 1021 - 0,8
So, 08.12. 7:00 1022 0,0
So, 08.12. 1:00 1022 + 0,3
Sa, 07.12. 19:00 1022 + 0,4
Sa, 07.12. 13:00 1022 - 0,5
Ortszeit Luftdruck NN (hPa) Tendenz (hPa in 3 Std.)
Mo, 09.12. 12:00 1014 - 1,2
Mo, 09.12. 11:55 1014 keine Meldung
Mo, 09.12. 11:00 1015 - 0,9
Mo, 09.12. 10:55 1015 keine Meldung
Mo, 09.12. 10:00 1016 + 0,1
Mo, 09.12. 9:55 1016 keine Meldung
Mo, 09.12. 9:00 1016 - 0,3
Mo, 09.12. 8:55 1015 keine Meldung
Mo, 09.12. 8:00 1016 - 0,6
Ortszeit Schneehöhe (cm)
Mo, 09.12. 7:00 0
Mo, 09.12. 1:00 -
So, 08.12. 19:00 -
So, 08.12. 13:00 -
So, 08.12. 7:00 0
So, 08.12. 1:00 -
Sa, 07.12. 19:00 -
Sa, 07.12. 13:00 -
Ortszeit Schneehöhe (cm)
Mo, 09.12. 12:00 -
Mo, 09.12. 11:55 -
Mo, 09.12. 11:00 -
Mo, 09.12. 10:55 -
Mo, 09.12. 10:00 -
Mo, 09.12. 9:55 -
Mo, 09.12. 9:00 -
Mo, 09.12. 8:55 -
Mo, 09.12. 8:00 -
Link zu dieser Seite / Seite empfehlen

Das Wetter in ...